createdAt,value
2018-01-06T05:00:51.768Z,0
2018-01-06T05:01:17.255Z,0
2018-01-06T05:01:42.748Z,0
2018-01-06T05:02:08.270Z,0
2018-01-06T05:02:33.756Z,0
2018-01-06T05:02:59.261Z,0
2018-01-06T05:03:24.781Z,0
2018-01-06T05:03:50.304Z,0
2018-01-06T05:04:15.775Z,0
2018-01-06T05:04:41.277Z,0
2018-01-06T05:05:06.768Z,0
2018-01-06T05:05:32.225Z,0
2018-01-06T05:05:57.708Z,0
2018-01-06T05:06:23.190Z,0
2018-01-06T05:06:48.659Z,0
2018-01-06T05:07:14.135Z,0
2018-01-06T05:07:39.631Z,0
2018-01-06T05:08:05.113Z,0
2018-01-06T05:08:30.568Z,0
2018-01-06T05:09:39.312Z,0
2018-01-06T05:10:04.718Z,0
2018-01-06T05:11:23.629Z,0
2018-01-06T05:11:49.075Z,0
2018-01-06T05:12:14.643Z,0
2018-01-06T05:12:40.152Z,0
2018-01-06T05:13:05.685Z,0
2018-01-06T05:13:31.143Z,0
2018-01-06T05:13:56.680Z,0
2018-01-06T05:14:22.191Z,0
2018-01-06T05:14:47.663Z,0
2018-01-06T05:15:13.188Z,0
2018-01-06T05:15:38.657Z,0
2018-01-06T05:16:04.146Z,0
2018-01-06T05:16:29.614Z,0
2018-01-06T05:16:55.048Z,0
2018-01-06T05:17:20.529Z,0
2018-01-06T05:18:39.490Z,0
2018-01-06T05:19:05.000Z,0
2018-01-06T05:19:30.520Z,0
2018-01-06T05:19:55.944Z,0
2018-01-06T05:20:21.448Z,0
2018-01-06T05:20:46.917Z,0
2018-01-06T05:21:12.383Z,0
2018-01-06T05:21:37.853Z,0
2018-01-06T05:22:03.356Z,0
2018-01-06T05:22:28.805Z,0
2018-01-06T05:22:54.310Z,0
2018-01-06T05:23:19.756Z,0
2018-01-06T05:23:45.250Z,0
2018-01-06T05:24:10.686Z,0
2018-01-06T05:24:36.153Z,0
2018-01-06T05:25:01.652Z,0
2018-01-06T05:25:27.149Z,0
2018-01-06T05:25:52.646Z,0
2018-01-06T05:26:18.101Z,0
2018-01-06T05:26:43.583Z,0
2018-01-06T05:27:09.038Z,0
2018-01-06T05:27:34.525Z,0
2018-01-06T05:27:59.974Z,0
2018-01-06T05:28:25.444Z,0
2018-01-06T05:28:50.927Z,0
2018-01-06T05:29:16.408Z,0
2018-01-06T05:29:41.857Z,0
2018-01-06T05:30:07.362Z,0
2018-01-06T05:30:32.861Z,0
2018-01-06T05:30:58.338Z,0
2018-01-06T05:31:23.815Z,0
2018-01-06T05:31:49.285Z,0
2018-01-06T05:32:14.781Z,0
2018-01-06T05:32:40.277Z,0
2018-01-06T05:33:05.776Z,0
2018-01-06T05:33:31.277Z,0
2018-01-06T05:33:56.736Z,0
2018-01-06T05:34:22.225Z,0
2018-01-06T05:34:47.710Z,0
2018-01-06T05:35:13.214Z,0
2018-01-06T05:35:38.725Z,0
2018-01-06T05:36:04.250Z,0
2018-01-06T05:36:29.757Z,0
2018-01-06T05:36:55.224Z,0
2018-01-06T05:37:20.705Z,0
2018-01-06T05:37:46.163Z,0
2018-01-06T05:38:11.644Z,0
2018-01-06T05:39:35.637Z,0
2018-01-06T05:40:01.137Z,0
2018-01-06T05:40:26.633Z,0
2018-01-06T05:40:52.120Z,0
2018-01-06T05:41:17.621Z,0
2018-01-06T05:41:43.108Z,0
2018-01-06T05:42:08.592Z,0
2018-01-06T05:42:34.081Z,0
2018-01-06T05:42:59.517Z,0
2018-01-06T05:43:24.979Z,0
2018-01-06T05:43:50.436Z,0
2018-01-06T05:44:15.956Z,0
2018-01-06T05:44:41.473Z,0
2018-01-06T05:45:06.916Z,0
2018-01-06T05:46:10.525Z,0
2018-01-06T05:46:36.015Z,0
2018-01-06T05:47:01.463Z,0
2018-01-06T05:47:26.935Z,0
2018-01-06T05:47:52.394Z,0
2018-01-06T05:48:17.875Z,0
2018-01-06T05:48:43.397Z,0
2018-01-06T05:49:08.871Z,0
2018-01-06T05:49:34.346Z,0
2018-01-06T05:49:59.845Z,0
2018-01-06T05:50:25.325Z,0
2018-01-06T05:50:50.819Z,0
2018-01-06T05:51:16.316Z,0
2018-01-06T05:51:41.794Z,0
2018-01-06T05:52:07.257Z,0
2018-01-06T05:52:32.732Z,0
2018-01-06T05:52:58.237Z,0
2018-01-06T05:53:23.723Z,0
2018-01-06T05:53:49.246Z,0
2018-01-06T05:54:14.692Z,0
2018-01-06T05:54:40.160Z,0
2018-01-06T05:55:05.654Z,0
2018-01-06T05:55:31.113Z,0
2018-01-06T05:55:56.629Z,0
2018-01-06T05:56:22.074Z,0
2018-01-06T05:57:41.011Z,0
2018-01-06T05:58:06.500Z,0
2018-01-06T05:58:32.012Z,0
2018-01-06T05:58:57.529Z,0
2018-01-06T05:59:23.039Z,0
2018-01-06T05:59:48.562Z,0
2018-01-06T06:00:14.041Z,0
2018-01-06T06:00:39.517Z,0
2018-01-06T06:01:04.980Z,0
2018-01-06T06:01:30.499Z,0
2018-01-06T06:01:56.031Z,0
2018-01-06T06:02:21.514Z,0
2018-01-06T06:02:47.035Z,0
2018-01-06T06:03:12.540Z,0
2018-01-06T06:03:38.004Z,0
2018-01-06T06:04:03.496Z,0
2018-01-06T06:04:28.993Z,0
2018-01-06T06:04:54.478Z,0
2018-01-06T06:05:19.998Z,0
2018-01-06T06:05:45.514Z,0
2018-01-06T06:06:10.988Z,0
2018-01-06T06:06:36.487Z,0
2018-01-06T06:07:01.999Z,0
2018-01-06T06:07:27.482Z,0
2018-01-06T06:07:52.971Z,0
2018-01-06T06:08:18.450Z,0
2018-01-06T06:08:43.956Z,0
2018-01-06T06:09:09.381Z,0
2018-01-06T06:09:34.878Z,0
2018-01-06T06:10:00.357Z,0
2018-01-06T06:10:25.924Z,0
2018-01-06T06:10:51.464Z,0
2018-01-06T06:11:16.881Z,0
2018-01-06T06:11:42.434Z,0
2018-01-06T06:12:07.892Z,0
2018-01-06T06:12:33.365Z,0
2018-01-06T06:12:58.837Z,0
2018-01-06T06:13:24.355Z,0
2018-01-06T06:14:33.031Z,0
2018-01-06T06:14:58.514Z,0
2018-01-06T06:15:24.002Z,0
2018-01-06T06:15:49.528Z,0
2018-01-06T06:17:13.572Z,0
2018-01-06T06:17:39.090Z,0
2018-01-06T06:18:04.584Z,0
2018-01-06T06:18:30.072Z,0
2018-01-06T06:18:55.583Z,0
2018-01-06T06:19:21.074Z,0
2018-01-06T06:19:46.537Z,0
2018-01-06T06:20:12.080Z,0
2018-01-06T06:20:37.587Z,0
2018-01-06T06:21:03.067Z,0
2018-01-06T06:22:06.670Z,0
2018-01-06T06:22:32.140Z,0
2018-01-06T06:22:57.644Z,0
2018-01-06T06:23:23.174Z,0
2018-01-06T06:23:48.659Z,0
2018-01-06T06:24:14.220Z,0
2018-01-06T06:24:39.732Z,0
2018-01-06T06:25:05.199Z,0
2018-01-06T06:25:30.692Z,0
2018-01-06T06:25:56.195Z,0
2018-01-06T06:26:21.698Z,0
2018-01-06T06:26:47.216Z,0
2018-01-06T06:27:12.756Z,0
2018-01-06T06:27:38.214Z,0
2018-01-06T06:28:03.743Z,0
2018-01-06T06:28:29.291Z,0
2018-01-06T06:28:54.762Z,0
2018-01-06T06:29:20.267Z,0
2018-01-06T06:29:45.776Z,0
2018-01-06T06:30:11.267Z,0
2018-01-06T06:30:36.785Z,0
2018-01-06T06:31:02.262Z,0
2018-01-06T06:31:27.697Z,0
2018-01-06T06:31:53.257Z,0
2018-01-06T06:32:18.765Z,0
2018-01-06T06:32:44.257Z,0
2018-01-06T06:33:09.749Z,0
2018-01-06T06:33:35.261Z,0
2018-01-06T06:34:00.768Z,0
2018-01-06T06:34:26.249Z,0
2018-01-06T06:34:51.739Z,0
2018-01-06T06:35:17.309Z,0
2018-01-06T06:35:42.807Z,0
2018-01-06T06:36:08.277Z,0
2018-01-06T06:36:33.782Z,0
2018-01-06T06:36:59.272Z,0
2018-01-06T06:37:24.805Z,0
2018-01-06T06:37:50.313Z,0
2018-01-06T06:38:15.841Z,0
2018-01-06T06:38:41.359Z,0
2018-01-06T06:39:06.848Z,0
2018-01-06T06:39:32.358Z,0
2018-01-06T06:39:57.827Z,0
2018-01-06T06:40:23.318Z,0
2018-01-06T06:40:48.796Z,0
2018-01-06T06:41:14.351Z,0
2018-01-06T06:41:39.849Z,0
2018-01-06T06:42:05.354Z,0
2018-01-06T06:42:30.839Z,0
2018-01-06T06:42:56.317Z,0
2018-01-06T06:43:21.770Z,0
2018-01-06T06:43:47.307Z,0
2018-01-06T06:44:12.811Z,0
2018-01-06T06:45:21.542Z,0
2018-01-06T06:45:47.039Z,0
2018-01-06T06:46:12.516Z,0
2018-01-06T06:46:37.985Z,0
2018-01-06T06:47:03.436Z,0
2018-01-06T06:47:28.917Z,0
2018-01-06T06:47:54.443Z,0
2018-01-06T06:48:19.883Z,0
2018-01-06T06:48:45.392Z,0
2018-01-06T06:49:10.875Z,0
2018-01-06T06:49:36.367Z,0
2018-01-06T06:50:01.860Z,0
2018-01-06T06:50:27.397Z,0
2018-01-06T06:51:50.906Z,0
2018-01-06T06:52:16.401Z,0
2018-01-06T06:52:41.895Z,0
2018-01-06T06:53:07.404Z,0
2018-01-06T06:53:32.881Z,0
2018-01-06T06:53:58.325Z,0
2018-01-06T06:54:23.817Z,0
2018-01-06T06:54:49.324Z,0
2018-01-06T06:55:14.814Z,0
2018-01-06T06:55:40.282Z,0
2018-01-06T06:56:53.620Z,0
2018-01-06T06:57:19.093Z,0
2018-01-06T06:57:44.611Z,0
2018-01-06T06:58:10.110Z,0
2018-01-06T06:58:35.593Z,0
2018-01-06T06:59:01.134Z,0
2018-01-06T06:59:26.602Z,0
2018-01-06T06:59:52.095Z,0
2018-01-06T07:00:17.584Z,0
2018-01-06T07:00:43.063Z,0
2018-01-06T07:01:08.565Z,0
2018-01-06T07:01:34.024Z,0
2018-01-06T07:01:59.478Z,0
2018-01-06T07:02:25.021Z,4
2018-01-06T07:02:50.518Z,4
2018-01-06T07:03:15.958Z,4
2018-01-06T07:03:41.461Z,4
2018-01-06T07:04:06.954Z,4
2018-01-06T07:04:32.453Z,4
2018-01-06T07:04:57.904Z,4
2018-01-06T07:05:23.398Z,0
2018-01-06T07:05:48.912Z,0
2018-01-06T07:06:14.370Z,4
2018-01-06T07:06:39.868Z,4
2018-01-06T07:07:05.365Z,4
2018-01-06T07:07:30.820Z,4
2018-01-06T07:07:56.334Z,4
2018-01-06T07:08:21.775Z,4
2018-01-06T07:08:47.238Z,8
2018-01-06T07:09:12.698Z,4
2018-01-06T07:09:38.173Z,4
2018-01-06T07:10:03.732Z,4
2018-01-06T07:10:29.205Z,4
2018-01-06T07:10:54.724Z,8
2018-01-06T07:11:20.198Z,8
2018-01-06T07:11:45.717Z,8
2018-01-06T07:12:11.223Z,4
2018-01-06T07:12:36.722Z,4
2018-01-06T07:13:02.193Z,8
2018-01-06T07:13:27.764Z,8
2018-01-06T07:13:53.210Z,8
2018-01-06T07:14:18.741Z,8
2018-01-06T07:14:44.254Z,8
2018-01-06T07:15:09.742Z,12
2018-01-06T07:15:35.241Z,8
2018-01-06T07:16:00.745Z,12
2018-01-06T07:16:26.241Z,12
2018-01-06T07:16:51.705Z,16
2018-01-06T07:17:17.201Z,16
2018-01-06T07:17:42.674Z,16
2018-01-06T07:18:08.171Z,16
2018-01-06T07:18:33.689Z,16
2018-01-06T07:18:59.188Z,20
2018-01-06T07:19:24.671Z,20
2018-01-06T07:19:50.144Z,20
2018-01-06T07:20:15.607Z,24
2018-01-06T07:20:41.073Z,24
2018-01-06T07:21:06.570Z,24
2018-01-06T07:21:32.075Z,24
2018-01-06T07:21:57.553Z,28
2018-01-06T07:22:23.051Z,24
2018-01-06T07:22:48.543Z,28
2018-01-06T07:23:14.085Z,28
2018-01-06T07:23:39.598Z,28
2018-01-06T07:24:05.102Z,28
2018-01-06T07:24:30.552Z,32
2018-01-06T07:24:56.030Z,28
2018-01-06T07:25:21.512Z,32
2018-01-06T07:25:46.989Z,32
2018-01-06T07:26:12.524Z,36
2018-01-06T07:26:38.017Z,40
2018-01-06T07:27:03.502Z,40
2018-01-06T07:27:29.004Z,40
2018-01-06T07:27:54.470Z,44
2018-01-06T07:28:19.918Z,44
2018-01-06T07:28:45.422Z,48
2018-01-06T07:29:10.914Z,52
2018-01-06T07:29:36.410Z,52
2018-01-06T07:30:01.901Z,56
2018-01-06T07:30:27.394Z,60
2018-01-06T07:30:52.865Z,60
2018-01-06T07:31:18.327Z,64
2018-01-06T07:31:43.840Z,64
2018-01-06T07:32:09.328Z,68
2018-01-06T07:32:34.825Z,72
2018-01-06T07:33:00.305Z,76
2018-01-06T07:33:25.806Z,80
2018-01-06T07:33:51.342Z,80
2018-01-06T07:34:16.884Z,84
2018-01-06T07:34:42.378Z,88
2018-01-06T07:36:06.412Z,96
2018-01-06T07:36:31.939Z,96
2018-01-06T07:36:57.432Z,96
2018-01-06T07:37:22.891Z,100
2018-01-06T07:37:48.430Z,100
2018-01-06T07:38:13.933Z,108
2018-01-06T07:38:39.349Z,112
2018-01-06T07:39:04.840Z,112
2018-01-06T07:39:30.299Z,112
2018-01-06T07:39:55.811Z,116
2018-01-06T07:40:21.281Z,120
2018-01-06T07:41:34.598Z,128
2018-01-06T07:42:00.090Z,132
2018-01-06T07:42:25.595Z,132
2018-01-06T07:42:51.075Z,136
2018-01-06T07:44:15.039Z,148
2018-01-06T07:44:40.516Z,152
2018-01-06T07:45:05.996Z,156
2018-01-06T07:45:31.481Z,160
2018-01-06T07:45:56.984Z,164
2018-01-06T07:46:22.470Z,168
2018-01-06T07:46:47.973Z,172
2018-01-06T07:47:13.449Z,176
2018-01-06T07:47:38.980Z,180
2018-01-06T07:48:04.438Z,184
2018-01-06T07:48:29.954Z,196
2018-01-06T07:48:55.487Z,200
2018-01-06T07:49:21.007Z,208
2018-01-06T07:50:24.632Z,216
2018-01-06T07:50:50.128Z,224
2018-01-06T07:51:15.652Z,228
2018-01-06T07:51:41.142Z,236
2018-01-06T07:52:06.622Z,248
2018-01-06T07:52:32.140Z,256
2018-01-06T07:52:57.626Z,264
2018-01-06T07:53:23.156Z,276
2018-01-06T07:53:48.651Z,288
2018-01-06T07:54:14.123Z,300
2018-01-06T07:54:39.581Z,312
2018-01-06T07:55:05.049Z,324
2018-01-06T07:55:30.544Z,332
2018-01-06T07:55:56.023Z,348
2018-01-06T07:56:21.502Z,356
2018-01-06T07:56:46.982Z,364
2018-01-06T07:57:12.490Z,372
2018-01-06T07:57:37.997Z,380
2018-01-06T07:58:03.642Z,396
2018-01-06T07:58:29.141Z,412
2018-01-06T07:58:54.644Z,432
2018-01-06T08:00:18.625Z,480
2018-01-06T08:00:44.098Z,488
2018-01-06T08:01:09.684Z,496
2018-01-06T08:01:35.184Z,496
2018-01-06T08:02:00.658Z,504
2018-01-06T08:02:26.180Z,512
2018-01-06T08:02:51.610Z,524
2018-01-06T08:03:17.093Z,536
2018-01-06T08:03:42.637Z,552
2018-01-06T08:04:08.133Z,560
2018-01-06T08:04:33.596Z,572
2018-01-06T08:04:59.111Z,580
2018-01-06T08:05:24.581Z,592
2018-01-06T08:05:50.061Z,600
2018-01-06T08:06:15.533Z,608
2018-01-06T08:06:41.001Z,616
2018-01-06T08:07:06.469Z,616
2018-01-06T08:07:31.930Z,624
2018-01-06T08:07:57.497Z,632
2018-01-06T08:08:22.949Z,640
2018-01-06T08:08:48.492Z,644
2018-01-06T08:09:13.970Z,652
2018-01-06T08:09:39.458Z,668
2018-01-06T08:10:04.894Z,684
2018-01-06T08:10:30.542Z,700
2018-01-06T08:10:56.080Z,716
2018-01-06T08:11:21.563Z,732
2018-01-06T08:11:47.038Z,748
2018-01-06T08:12:12.650Z,768
2018-01-06T08:12:38.063Z,772
2018-01-06T08:13:03.596Z,776
2018-01-06T08:13:29.117Z,776
2018-01-06T08:13:54.701Z,772
2018-01-06T08:14:20.118Z,768
2018-01-06T08:14:45.619Z,764
2018-01-06T08:15:11.129Z,756
2018-01-06T08:15:36.605Z,744
2018-01-06T08:16:02.051Z,732
2018-01-06T08:16:27.615Z,716
2018-01-06T08:16:53.049Z,700
2018-01-06T08:17:18.493Z,684
2018-01-06T08:17:43.969Z,672
2018-01-06T08:18:09.434Z,668
2018-01-06T08:18:34.910Z,672
2018-01-06T08:19:00.390Z,688
2018-01-06T08:19:25.910Z,708
2018-01-06T08:19:51.460Z,716
2018-01-06T08:20:16.980Z,728
2018-01-06T08:20:42.511Z,740
2018-01-06T08:21:08.000Z,744
2018-01-06T08:21:33.516Z,744
2018-01-06T08:21:59.003Z,740
2018-01-06T08:22:24.498Z,744
2018-01-06T08:22:49.970Z,752
2018-01-06T08:23:15.518Z,764
2018-01-06T08:23:41.003Z,780
2018-01-06T08:24:06.501Z,796
2018-01-06T08:24:31.963Z,828
2018-01-06T08:24:57.513Z,844
2018-01-06T08:25:23.069Z,852
2018-01-06T08:25:48.544Z,864
2018-01-06T08:26:14.051Z,868
2018-01-06T08:26:39.544Z,872
2018-01-06T08:27:05.049Z,880
2018-01-06T08:27:30.573Z,892
2018-01-06T08:27:56.092Z,912
2018-01-06T08:28:21.572Z,940
2018-01-06T08:28:47.081Z,972
2018-01-06T08:29:12.567Z,1000
2018-01-06T08:29:38.040Z,1024
2018-01-06T08:30:03.505Z,1044
2018-01-06T08:30:29.039Z,1068
2018-01-06T08:30:54.474Z,1084
2018-01-06T08:31:19.958Z,1104
2018-01-06T08:31:45.462Z,1116
2018-01-06T08:32:10.973Z,1120
2018-01-06T08:33:19.657Z,1148
2018-01-06T08:33:45.155Z,1164
2018-01-06T08:34:10.686Z,1184
2018-01-06T08:34:36.152Z,1208
2018-01-06T08:35:01.627Z,1236
2018-01-06T08:35:27.139Z,1280
2018-01-06T08:35:52.673Z,1332
2018-01-06T08:36:18.131Z,1380
2018-01-06T08:36:43.648Z,1424
2018-01-06T08:38:07.669Z,1516
2018-01-06T08:38:33.152Z,1524
2018-01-06T08:38:58.699Z,1516
2018-01-06T08:39:24.173Z,1500
2018-01-06T08:39:49.618Z,1484
2018-01-06T08:40:15.243Z,1460
2018-01-06T08:40:40.818Z,1420
2018-01-06T08:41:06.252Z,1376
2018-01-06T08:41:31.772Z,1336
2018-01-06T08:41:57.267Z,1284
2018-01-06T08:42:22.932Z,1240
2018-01-06T08:42:48.460Z,1200
2018-01-06T08:43:14.155Z,1164
2018-01-06T08:43:39.636Z,1132
2018-01-06T08:44:05.124Z,1112
2018-01-06T08:44:30.643Z,1104
2018-01-06T08:44:56.182Z,1108
2018-01-06T08:45:21.651Z,1112
2018-01-06T08:45:47.098Z,1120
2018-01-06T08:46:12.592Z,1120
2018-01-06T08:46:38.026Z,1128
2018-01-06T08:47:03.561Z,1128
2018-01-06T08:47:29.039Z,1128
2018-01-06T08:47:54.512Z,1148
2018-01-06T08:48:20.041Z,1164
2018-01-06T08:48:45.530Z,1172
2018-01-06T08:49:11.064Z,1172
2018-01-06T08:49:36.551Z,1168
2018-01-06T08:50:02.072Z,1172
2018-01-06T08:50:27.573Z,1160
2018-01-06T08:50:53.093Z,1152
2018-01-06T08:51:18.658Z,1132
2018-01-06T08:52:42.630Z,1052
2018-01-06T08:53:08.118Z,1028
2018-01-06T08:53:33.733Z,1008
2018-01-06T08:53:59.230Z,992
2018-01-06T08:54:24.743Z,988
2018-01-06T08:54:50.707Z,988
2018-01-06T08:55:16.267Z,992
2018-01-06T08:55:41.744Z,1008
2018-01-06T08:56:07.249Z,1024
2018-01-06T08:56:32.709Z,1044
2018-01-06T08:56:58.160Z,1076
2018-01-06T08:57:23.701Z,1128
2018-01-06T08:57:49.142Z,1180
2018-01-06T08:58:14.686Z,1200
2018-01-06T08:58:40.200Z,1188
2018-01-06T08:59:05.548Z,1200
2018-01-06T08:59:31.016Z,1224
2018-01-06T08:59:56.469Z,1224
2018-01-06T09:00:21.909Z,1208
2018-01-06T09:00:47.417Z,1184
2018-01-06T09:01:12.818Z,1168
2018-01-06T09:01:38.299Z,1168
2018-01-06T09:02:03.769Z,1180
2018-01-06T09:02:29.213Z,1184
2018-01-06T09:02:54.673Z,1204
2018-01-06T09:03:20.148Z,1216
2018-01-06T09:04:34.743Z,1248
2018-01-06T09:05:00.215Z,1260
2018-01-06T09:05:25.773Z,1280
2018-01-06T09:05:51.254Z,1300
2018-01-06T09:06:16.737Z,1328
2018-01-06T09:06:42.163Z,1364
2018-01-06T09:07:07.682Z,1404
2018-01-06T09:07:33.185Z,1444
2018-01-06T09:07:58.631Z,1488
2018-01-06T09:08:24.059Z,1552
2018-01-06T09:08:49.546Z,1616
2018-01-06T09:09:15.017Z,1664
2018-01-06T09:09:40.488Z,1696
2018-01-06T09:10:05.988Z,1716
2018-01-06T09:10:31.517Z,1728
2018-01-06T09:10:56.971Z,1712
2018-01-06T09:11:22.420Z,1696
2018-01-06T09:11:47.906Z,1668
2018-01-06T09:12:13.358Z,1636
2018-01-06T09:12:38.879Z,1604
2018-01-06T09:13:04.359Z,1572
2018-01-06T09:13:30.038Z,1564
2018-01-06T09:13:55.569Z,1548
2018-01-06T09:14:21.002Z,1552
2018-01-06T09:14:46.656Z,1564
2018-01-06T09:15:12.201Z,1564
2018-01-06T09:15:37.700Z,1560
2018-01-06T09:16:03.195Z,1532
2018-01-06T09:16:28.697Z,1500
2018-01-06T09:16:54.172Z,1476
2018-01-06T09:17:19.660Z,1460
2018-01-06T09:17:45.235Z,1480
2018-01-06T09:18:10.665Z,1488
2018-01-06T09:18:36.156Z,1496
2018-01-06T09:19:01.576Z,1500
2018-01-06T09:19:27.036Z,1480
2018-01-06T09:19:52.537Z,1472
2018-01-06T09:20:17.987Z,1484
2018-01-06T09:20:43.466Z,1488
2018-01-06T09:21:08.900Z,1484
2018-01-06T09:21:34.378Z,1472
2018-01-06T09:21:59.856Z,1456
2018-01-06T09:22:25.356Z,1444
2018-01-06T09:22:50.816Z,1448
2018-01-06T09:23:16.339Z,1440
2018-01-06T09:23:41.818Z,1436
2018-01-06T09:24:07.327Z,1428
2018-01-06T09:24:32.753Z,1420
2018-01-06T09:24:58.222Z,1412
2018-01-06T09:26:02.847Z,1420
2018-01-06T09:26:28.341Z,1416
2018-01-06T09:26:53.803Z,1408
2018-01-06T09:27:19.316Z,1392
2018-01-06T09:27:44.774Z,1384
2018-01-06T09:28:10.244Z,1380
2018-01-06T09:28:35.681Z,1376
2018-01-06T09:29:01.173Z,1376
2018-01-06T09:29:26.712Z,1392
2018-01-06T09:29:52.120Z,1416
2018-01-06T09:30:17.524Z,1448
2018-01-06T09:30:42.999Z,1528
2018-01-06T09:31:08.500Z,1664
2018-01-06T09:31:33.984Z,1832
2018-01-06T09:31:59.456Z,2048
2018-01-06T09:32:24.885Z,2292
2018-01-06T09:32:50.335Z,2528
2018-01-06T09:33:15.799Z,2716
2018-01-06T09:33:41.284Z,2828
2018-01-06T09:34:06.805Z,2852
2018-01-06T09:34:32.260Z,2776
2018-01-06T09:34:57.745Z,2636
2018-01-06T09:35:23.182Z,2512
2018-01-06T09:35:48.644Z,2464
2018-01-06T09:36:14.118Z,2472
2018-01-06T09:36:39.574Z,2508
2018-01-06T09:37:05.044Z,2556
2018-01-06T09:37:30.488Z,2668
2018-01-06T09:37:55.976Z,2748
2018-01-06T09:38:21.443Z,2776
2018-01-06T09:38:46.940Z,2772
2018-01-06T09:39:12.395Z,2816
2018-01-06T09:39:37.865Z,2844
2018-01-06T09:40:03.318Z,2840
2018-01-06T09:40:28.836Z,2820
2018-01-06T09:40:54.293Z,2808
2018-01-06T09:41:19.736Z,2780
2018-01-06T09:41:45.239Z,2724
2018-01-06T09:42:10.705Z,2604
2018-01-06T09:42:36.163Z,2500
2018-01-06T09:43:01.646Z,2384
2018-01-06T09:43:27.117Z,2244
2018-01-06T09:43:52.609Z,2112
2018-01-06T09:44:18.080Z,2016
2018-01-06T09:45:42.087Z,1692
2018-01-06T09:46:07.579Z,1672
2018-01-06T09:46:33.049Z,1684
2018-01-06T09:46:58.577Z,1732
2018-01-06T09:47:23.989Z,1704
2018-01-06T09:47:49.477Z,1688
2018-01-06T09:48:14.974Z,1736
2018-01-06T09:48:40.439Z,1836
2018-01-06T09:49:05.935Z,1868
2018-01-06T09:49:31.431Z,1880
2018-01-06T09:49:56.933Z,1908
2018-01-06T09:50:22.360Z,2012
2018-01-06T09:50:47.810Z,2100
2018-01-06T09:51:13.251Z,2188
2018-01-06T09:51:38.749Z,2244
2018-01-06T09:52:04.229Z,2272
2018-01-06T09:52:29.652Z,2292
2018-01-06T09:52:55.124Z,2324
2018-01-06T09:53:20.584Z,2316
2018-01-06T09:53:46.042Z,2308
2018-01-06T09:54:11.532Z,2292
2018-01-06T09:54:37.036Z,2304
2018-01-06T09:55:02.618Z,2284
2018-01-06T09:55:28.029Z,2204
2018-01-06T09:55:53.556Z,2208
2018-01-06T09:56:18.997Z,2140
2018-01-06T09:57:32.776Z,2128
2018-01-06T09:57:58.284Z,2200
2018-01-06T09:58:23.806Z,2296
2018-01-06T09:58:49.269Z,2412
2018-01-06T09:59:14.813Z,2532
2018-01-06T09:59:40.311Z,2648
2018-01-06T10:00:05.812Z,2744
2018-01-06T10:00:31.281Z,2800
2018-01-06T10:00:56.803Z,2824
2018-01-06T10:02:05.530Z,2768
2018-01-06T10:02:31.045Z,2764
2018-01-06T10:02:56.527Z,2760
2018-01-06T10:03:22.092Z,2744
2018-01-06T10:03:47.528Z,2736
2018-01-06T10:04:13.014Z,2748
2018-01-06T10:04:38.748Z,2780
2018-01-06T10:05:04.303Z,2828
2018-01-06T10:05:29.835Z,2924
2018-01-06T10:05:55.331Z,3028
2018-01-06T10:06:20.787Z,3140
2018-01-06T10:06:46.278Z,3224
2018-01-06T10:07:11.805Z,3316
2018-01-06T10:07:37.335Z,3408
2018-01-06T10:08:02.894Z,3404
2018-01-06T10:08:28.327Z,3460
2018-01-06T10:08:53.812Z,3580
2018-01-06T10:09:19.407Z,3524
2018-01-06T10:09:44.863Z,3528
2018-01-06T10:10:10.378Z,3524
2018-01-06T10:10:35.930Z,3512
2018-01-06T10:11:01.321Z,3576
2018-01-06T10:11:26.798Z,3628
2018-01-06T10:11:52.334Z,3640
2018-01-06T10:12:17.819Z,3548
2018-01-06T10:12:43.322Z,3448
2018-01-06T10:13:08.895Z,3328
2018-01-06T10:13:34.375Z,3220
2018-01-06T10:13:59.865Z,3084
2018-01-06T10:14:25.353Z,2972
2018-01-06T10:14:50.876Z,2856
2018-01-06T10:15:16.328Z,2780
2018-01-06T10:15:41.868Z,2700
2018-01-06T10:16:07.413Z,2652
2018-01-06T10:16:32.904Z,2672
2018-01-06T10:16:58.441Z,2708
2018-01-06T10:17:23.955Z,2744
2018-01-06T10:17:49.433Z,2796
2018-01-06T10:18:14.976Z,2864
2018-01-06T10:18:40.456Z,2900
2018-01-06T10:19:05.959Z,2896
2018-01-06T10:19:31.427Z,2852
2018-01-06T10:19:56.947Z,2836
2018-01-06T10:20:22.484Z,2844
2018-01-06T10:20:48.009Z,2860
2018-01-06T10:21:13.442Z,2896
2018-01-06T10:21:38.926Z,2964
2018-01-06T10:22:04.418Z,3044
2018-01-06T10:22:30.015Z,3128
2018-01-06T10:22:55.441Z,3196
2018-01-06T10:23:20.968Z,3248
2018-01-06T10:23:46.435Z,3284
2018-01-06T10:24:11.997Z,3312
2018-01-06T10:24:37.474Z,3324
2018-01-06T10:25:03.001Z,3296
2018-01-06T10:25:28.488Z,3248
2018-01-06T10:25:53.954Z,3188
2018-01-06T10:26:19.411Z,3088
2018-01-06T10:26:44.882Z,2976
2018-01-06T10:27:10.360Z,2880
2018-01-06T10:27:35.845Z,2796
2018-01-06T10:28:01.289Z,2720
2018-01-06T10:28:26.778Z,2628
2018-01-06T10:28:52.274Z,2548
2018-01-06T10:29:17.788Z,2480
2018-01-06T10:29:43.201Z,2412
2018-01-06T10:30:08.680Z,2332
2018-01-06T10:30:34.168Z,2240
2018-01-06T10:30:59.630Z,2148
2018-01-06T10:31:25.080Z,2084
2018-01-06T10:31:50.580Z,2076
2018-01-06T10:32:16.079Z,2152
2018-01-06T10:32:41.553Z,2284
2018-01-06T10:33:45.144Z,2792
2018-01-06T10:34:10.663Z,2944
2018-01-06T10:34:36.164Z,3064
2018-01-06T10:35:01.647Z,3156
2018-01-06T10:35:27.234Z,3152
2018-01-06T10:35:52.725Z,3096
2018-01-06T10:36:18.227Z,3024
2018-01-06T10:36:43.816Z,2988
2018-01-06T10:37:09.247Z,2956
2018-01-06T10:37:34.722Z,2968
2018-01-06T10:38:00.235Z,3008
2018-01-06T10:38:25.751Z,3068
2018-01-06T10:38:51.245Z,3108
2018-01-06T10:39:16.734Z,3120
2018-01-06T10:39:42.210Z,3104
2018-01-06T10:40:07.702Z,3088
2018-01-06T10:40:33.172Z,3096
2018-01-06T10:40:58.680Z,3116
2018-01-06T10:41:24.123Z,3148
2018-01-06T10:41:49.612Z,3184
2018-01-06T10:42:15.080Z,3224
2018-01-06T10:42:40.630Z,3264
2018-01-06T10:43:06.054Z,3300
2018-01-06T10:43:31.600Z,3296
2018-01-06T10:43:57.077Z,3276
2018-01-06T10:44:22.592Z,3256
2018-01-06T10:44:48.102Z,3232
2018-01-06T10:45:13.792Z,3184
2018-01-06T10:45:39.284Z,3156
2018-01-06T10:46:04.754Z,3136
2018-01-06T10:46:30.190Z,3156
2018-01-06T10:46:55.659Z,3220
2018-01-06T10:47:21.188Z,3308
2018-01-06T10:47:46.630Z,3428
2018-01-06T10:48:12.112Z,3588
2018-01-06T10:48:37.570Z,3740
2018-01-06T10:49:03.124Z,3860
2018-01-06T10:50:16.893Z,3988
2018-01-06T10:50:42.434Z,3924
2018-01-06T10:51:07.862Z,3828
2018-01-06T10:51:33.310Z,3744
2018-01-06T10:51:58.817Z,3684
2018-01-06T10:52:24.245Z,3628
2018-01-06T10:53:27.830Z,3432
2018-01-06T10:53:53.322Z,3380
2018-01-06T10:54:19.126Z,3360
2018-01-06T10:54:44.608Z,3344
2018-01-06T10:55:10.170Z,3356
2018-01-06T10:55:35.765Z,3428
2018-01-06T10:56:01.218Z,3552
2018-01-06T10:56:26.712Z,3712
2018-01-06T10:56:52.174Z,3876
2018-01-06T10:57:17.646Z,3984
2018-01-06T10:57:43.110Z,4080
2018-01-06T10:58:08.577Z,4212
2018-01-06T10:58:34.074Z,4336
2018-01-06T10:58:59.487Z,4372
2018-01-06T10:59:24.956Z,4340
2018-01-06T10:59:50.383Z,4312
2018-01-06T11:00:15.862Z,4284
2018-01-06T11:00:41.299Z,4232
2018-01-06T11:01:06.865Z,4168
2018-01-06T11:01:32.327Z,4084
2018-01-06T11:01:57.916Z,3932
2018-01-06T11:02:23.456Z,3748
2018-01-06T11:02:48.971Z,3564
2018-01-06T11:03:14.499Z,3404
2018-01-06T11:03:39.991Z,3248
2018-01-06T11:04:05.463Z,3152
2018-01-06T11:04:30.969Z,3124
2018-01-06T11:04:56.437Z,3168
2018-01-06T11:05:21.925Z,3252
2018-01-06T11:05:47.462Z,3364
2018-01-06T11:06:12.976Z,3480
2018-01-06T11:06:38.496Z,3620
2018-01-06T11:07:03.986Z,3764
2018-01-06T11:07:29.465Z,3908
2018-01-06T11:07:54.933Z,4000
2018-01-06T11:08:20.404Z,4056
2018-01-06T11:08:45.873Z,4096
2018-01-06T11:09:11.382Z,4156
2018-01-06T11:09:36.933Z,4188
2018-01-06T11:10:02.432Z,4196
2018-01-06T11:10:27.902Z,4184
2018-01-06T11:10:53.360Z,4164
2018-01-06T11:11:18.879Z,4156
2018-01-06T11:11:44.554Z,4152
2018-01-06T11:12:10.011Z,4156
2018-01-06T11:12:35.483Z,4180
2018-01-06T11:13:01.186Z,4232
2018-01-06T11:13:26.634Z,4316
2018-01-06T11:13:52.110Z,4416
2018-01-06T11:14:17.575Z,4532
2018-01-06T11:14:43.105Z,4608
2018-01-06T11:15:08.561Z,4640
2018-01-06T11:16:12.166Z,4504
2018-01-06T11:16:37.655Z,4400
2018-01-06T11:17:03.133Z,4276
2018-01-06T11:17:28.621Z,4152
2018-01-06T11:17:54.054Z,4032
2018-01-06T11:18:19.564Z,3916
2018-01-06T11:18:45.159Z,3800
2018-01-06T11:19:10.543Z,3716